createdAt,value
2024-01-11T00:00:39.638Z,-3.38
2024-01-11T00:02:21.044Z,-3.43
2024-01-11T00:04:02.407Z,-3.54
2024-01-11T00:05:43.910Z,-3.10
2024-01-11T00:07:25.321Z,-2.63
2024-01-11T00:09:06.686Z,-2.64
2024-01-11T00:10:48.021Z,-2.69
2024-01-11T00:12:29.395Z,-2.82
2024-01-11T00:14:10.775Z,-3.00
2024-01-11T00:15:52.187Z,-2.91
2024-01-11T00:17:33.688Z,-2.59
2024-01-11T00:19:15.238Z,-2.47
2024-01-11T00:20:56.651Z,-2.29
2024-01-11T00:22:37.997Z,-1.91
2024-01-11T00:24:19.342Z,-1.81
2024-01-11T00:26:00.938Z,-2.12
2024-01-11T00:27:42.341Z,-2.01
2024-01-11T00:29:23.735Z,-2.35
2024-01-11T00:31:05.165Z,-2.48
2024-01-11T00:32:46.715Z,-2.41
2024-01-11T00:34:28.156Z,-2.23
2024-01-11T00:36:09.669Z,-2.10
2024-01-11T00:37:51.475Z,-2.85
2024-01-11T00:39:32.899Z,-3.02
2024-01-11T00:41:14.858Z,-2.78
2024-01-11T00:42:56.218Z,-2.50
2024-01-11T00:44:37.670Z,-2.07
2024-01-11T00:46:19.065Z,-1.92
2024-01-11T00:48:00.544Z,-1.75
2024-01-11T00:49:42.119Z,-2.95
2024-01-11T00:51:23.485Z,-3.69
2024-01-11T00:53:04.893Z,-3.48
2024-01-11T00:54:46.263Z,-3.17
2024-01-11T00:56:27.623Z,-2.84
2024-01-11T00:58:09.039Z,-2.45
2024-01-11T00:59:50.452Z,-2.24
2024-01-11T01:01:31.817Z,-2.83
2024-01-11T01:03:13.186Z,-3.34
2024-01-11T01:04:54.580Z,-3.47
2024-01-11T01:06:36.050Z,-3.42
2024-01-11T01:08:17.509Z,-3.04
2024-01-11T01:09:58.871Z,-2.69
2024-01-11T01:11:40.248Z,-2.85
2024-01-11T01:13:21.618Z,-3.78
2024-01-11T01:15:03.014Z,-3.76
2024-01-11T01:16:44.376Z,-3.66
2024-01-11T01:18:25.802Z,-3.54
2024-01-11T01:20:07.241Z,-3.45
2024-01-11T01:21:48.624Z,-3.54
2024-01-11T01:23:30.029Z,-3.60
2024-01-11T01:25:11.505Z,-3.37
2024-01-11T01:26:52.935Z,-3.56
2024-01-11T01:28:34.308Z,-3.77
2024-01-11T01:30:16.403Z,-4.13
2024-01-11T01:31:58.029Z,-4.12
2024-01-11T01:33:39.561Z,-4.46
2024-01-11T01:35:21.017Z,-4.27
2024-01-11T01:37:02.398Z,-4.26
2024-01-11T01:38:43.878Z,-4.09
2024-01-11T01:40:25.288Z,-4.33
2024-01-11T01:42:06.632Z,-4.44
2024-01-11T01:43:47.981Z,-4.14
2024-01-11T01:45:29.415Z,-4.43
2024-01-11T01:47:10.799Z,-3.95
2024-01-11T01:48:52.265Z,-3.98
2024-01-11T01:50:33.762Z,-4.09
2024-01-11T01:52:15.164Z,-4.31
2024-01-11T01:53:56.523Z,-4.52
2024-01-11T01:55:37.941Z,-4.31
2024-01-11T01:57:19.314Z,-3.96
2024-01-11T01:59:00.659Z,-3.73
2024-01-11T02:00:42.096Z,-3.91
2024-01-11T02:02:23.510Z,-3.81
2024-01-11T02:04:04.904Z,-3.74
2024-01-11T02:05:46.461Z,-3.89
2024-01-11T02:07:27.867Z,-4.03
2024-01-11T02:09:09.224Z,-3.85
2024-01-11T02:10:50.604Z,-3.39
2024-01-11T02:12:31.945Z,-3.54
2024-01-11T02:14:13.334Z,-3.24
2024-01-11T02:15:54.722Z,-3.03
2024-01-11T02:17:36.213Z,-2.99
2024-01-11T02:19:17.641Z,-3.13
2024-01-11T02:20:59.070Z,-3.80
2024-01-11T02:22:40.457Z,-3.48
2024-01-11T02:24:21.849Z,-3.18
2024-01-11T02:26:03.276Z,-3.21
2024-01-11T02:27:44.696Z,-3.52
2024-01-11T02:29:26.063Z,-3.61
2024-01-11T02:31:07.660Z,-3.65
2024-01-11T02:32:49.205Z,-3.59
2024-01-11T02:34:30.858Z,-3.67
2024-01-11T02:36:12.388Z,-3.28
2024-01-11T02:37:53.817Z,-2.98
2024-01-11T02:39:35.224Z,-2.56
2024-01-11T02:41:16.630Z,-2.46
2024-01-11T02:42:58.034Z,-2.46
2024-01-11T02:44:39.507Z,-2.42
2024-01-11T02:46:20.852Z,-2.44
2024-01-11T02:48:02.381Z,-2.68
2024-01-11T02:49:43.794Z,-2.77
2024-01-11T02:51:25.182Z,-3.06
2024-01-11T02:53:06.606Z,-3.34
2024-01-11T02:54:48.114Z,-3.16
2024-01-11T02:56:29.550Z,-2.92
2024-01-11T02:58:10.924Z,-2.83
2024-01-11T02:59:52.316Z,-2.32
2024-01-11T03:01:33.704Z,-2.16
2024-01-11T03:03:15.141Z,-2.13
2024-01-11T03:04:56.577Z,-2.48
2024-01-11T03:06:38.204Z,-2.32
2024-01-11T03:08:19.730Z,-2.65
2024-01-11T03:10:01.130Z,-2.31
2024-01-11T03:11:42.591Z,-2.21
2024-01-11T03:13:24.003Z,-2.17
2024-01-11T03:15:05.353Z,-2.03
2024-01-11T03:16:46.743Z,-1.64
2024-01-11T03:18:28.250Z,-1.46
2024-01-11T03:20:09.759Z,-1.13
2024-01-11T03:21:51.191Z,-1.37
2024-01-11T03:23:32.643Z,-1.10
2024-01-11T03:25:14.067Z,-1.14
2024-01-11T03:26:55.457Z,-1.47
2024-01-11T03:28:36.815Z,-1.65
2024-01-11T03:30:18.313Z,-1.35
2024-01-11T03:31:59.745Z,-1.44
2024-01-11T03:33:41.222Z,-1.37
2024-01-11T03:35:22.661Z,-1.52
2024-01-11T03:37:04.039Z,-1.51
2024-01-11T03:38:47.148Z,-1.74
2024-01-11T03:40:29.680Z,-2.03
2024-01-11T03:42:11.057Z,-2.72
2024-01-11T03:43:52.395Z,-2.93
2024-01-11T03:45:33.746Z,-2.79
2024-01-11T03:47:15.157Z,-2.65
2024-01-11T03:48:56.741Z,-3.11
2024-01-11T03:50:38.262Z,-3.13
2024-01-11T03:52:19.748Z,-3.09
2024-01-11T03:54:01.094Z,-3.25
2024-01-11T03:55:42.466Z,-3.34
2024-01-11T03:57:23.851Z,-3.10
2024-01-11T03:59:05.241Z,-3.15
2024-01-11T04:00:46.715Z,-3.19
2024-01-11T04:02:28.152Z,-3.42
2024-01-11T04:04:09.597Z,-3.90
2024-01-11T04:05:51.151Z,-4.22
2024-01-11T04:07:32.582Z,-3.81
2024-01-11T04:09:13.944Z,-4.10
2024-01-11T04:10:55.419Z,-3.58
2024-01-11T04:12:56.800Z,-3.45
2024-01-11T04:14:58.139Z,-3.09
2024-01-11T04:16:39.503Z,-2.88
2024-01-11T04:18:20.972Z,-2.95
2024-01-11T04:20:02.578Z,-2.88
2024-01-11T04:21:43.994Z,-3.45
2024-01-11T04:23:25.431Z,-3.19
2024-01-11T04:25:06.817Z,-2.72
2024-01-11T04:26:48.251Z,-2.27
2024-01-11T04:28:29.618Z,-2.26
2024-01-11T04:30:10.987Z,-2.19
2024-01-11T04:31:52.418Z,-2.13
2024-01-11T04:33:33.857Z,-2.03
2024-01-11T04:35:15.299Z,-2.14
2024-01-11T04:36:56.714Z,-2.26
2024-01-11T04:38:38.140Z,-2.56
2024-01-11T04:40:19.543Z,-2.43
2024-01-11T04:42:01.522Z,-2.40
2024-01-11T04:43:42.897Z,-2.53
2024-01-11T04:45:24.269Z,-2.58
2024-01-11T04:47:05.754Z,-2.21
2024-01-11T04:48:47.302Z,-2.23
2024-01-11T04:50:31.506Z,-2.83
2024-01-11T04:52:12.899Z,-3.42
2024-01-11T04:53:54.269Z,-2.98
2024-01-11T04:55:35.634Z,-2.71
2024-01-11T04:57:17.088Z,-3.20
2024-01-11T04:58:58.468Z,-3.06
2024-01-11T05:00:39.860Z,-2.84
2024-01-11T05:02:21.333Z,-3.40
2024-01-11T05:04:02.843Z,-3.90
2024-01-11T05:05:44.401Z,-3.76
2024-01-11T05:07:25.817Z,-3.61
2024-01-11T05:09:07.207Z,-4.04
2024-01-11T05:10:48.620Z,-3.95
2024-01-11T05:12:29.986Z,-3.52
2024-01-11T05:14:11.397Z,-3.43
2024-01-11T05:15:52.808Z,-3.19
2024-01-11T05:17:34.235Z,-2.81
2024-01-11T05:19:15.744Z,-2.59
2024-01-11T05:20:57.152Z,-2.55
2024-01-11T05:22:38.515Z,-2.36
2024-01-11T05:24:19.903Z,-2.24
2024-01-11T05:26:01.417Z,-2.04
2024-01-11T05:27:42.765Z,-2.57
2024-01-11T05:29:24.119Z,-2.75
2024-01-11T05:31:05.589Z,-2.78
2024-01-11T05:32:47.074Z,-2.51
2024-01-11T05:34:28.774Z,-2.39
2024-01-11T05:36:10.180Z,-2.33
2024-01-11T05:37:51.515Z,-2.06
2024-01-11T05:39:32.931Z,-2.48
2024-01-11T05:41:14.398Z,-2.70
2024-01-11T05:42:55.791Z,-2.81
2024-01-11T05:44:37.309Z,-3.19
2024-01-11T05:46:18.727Z,-3.49
2024-01-11T05:48:00.141Z,-3.82
2024-01-11T05:49:41.603Z,-3.72
2024-01-11T05:51:23.108Z,-3.23
2024-01-11T05:53:04.487Z,-3.22
2024-01-11T05:54:45.851Z,-2.94
2024-01-11T05:56:27.288Z,-3.39
2024-01-11T05:58:08.662Z,-3.25
2024-01-11T05:59:50.024Z,-2.95
2024-01-11T06:01:31.411Z,-2.91
2024-01-11T06:03:12.759Z,-3.24
2024-01-11T06:04:54.146Z,-3.45
2024-01-11T06:06:35.569Z,-3.62
2024-01-11T06:08:16.972Z,-3.96
2024-01-11T06:09:58.355Z,-4.42
2024-01-11T06:11:39.836Z,-4.15
2024-01-11T06:13:21.238Z,-3.83
2024-01-11T06:15:02.566Z,-4.16
2024-01-11T06:16:43.927Z,-4.21
2024-01-11T06:18:25.347Z,-4.76
2024-01-11T06:20:06.808Z,-5.08
2024-01-11T06:21:48.316Z,-5.13
2024-01-11T06:23:29.742Z,-4.57
2024-01-11T06:25:11.119Z,-4.03
2024-01-11T06:26:52.481Z,-4.22
2024-01-11T06:28:36.129Z,-4.21
2024-01-11T06:30:17.970Z,-4.28
2024-01-11T06:31:59.451Z,-4.01
2024-01-11T06:33:40.865Z,-3.95
2024-01-11T06:35:22.264Z,-4.32
2024-01-11T06:37:03.648Z,-4.59
2024-01-11T06:38:45.130Z,-4.12
2024-01-11T06:40:26.490Z,-3.75
2024-01-11T06:42:07.875Z,-4.14
2024-01-11T06:43:49.200Z,-4.41
2024-01-11T06:45:30.556Z,-4.37
2024-01-11T06:47:11.949Z,-4.49
2024-01-11T06:48:53.660Z,-4.15
2024-01-11T06:50:35.174Z,-4.22
2024-01-11T06:52:16.569Z,-4.42
2024-01-11T06:53:57.898Z,-5.01
2024-01-11T06:55:39.471Z,-4.80
2024-01-11T06:57:20.957Z,-4.79
2024-01-11T06:59:02.367Z,-4.44
2024-01-11T07:00:43.772Z,-4.16
2024-01-11T07:02:25.340Z,-4.05
2024-01-11T07:04:06.761Z,-3.98
2024-01-11T07:05:48.459Z,-4.48
2024-01-11T07:07:29.958Z,-4.69
2024-01-11T07:09:11.337Z,-4.20
2024-01-11T07:10:52.713Z,-4.20
2024-01-11T07:12:34.109Z,-4.42
2024-01-11T07:14:15.478Z,-4.38
2024-01-11T07:15:56.860Z,-4.44
2024-01-11T07:17:38.332Z,-4.42
2024-01-11T07:19:19.821Z,-4.10
2024-01-11T07:21:01.236Z,-4.08
2024-01-11T07:22:42.905Z,-4.06
2024-01-11T07:24:24.306Z,-3.76
2024-01-11T07:26:05.708Z,-3.36
2024-01-11T07:27:47.043Z,-3.21
2024-01-11T07:29:28.465Z,-2.97
2024-01-11T07:31:09.893Z,-2.92
2024-01-11T07:32:51.386Z,-2.81
2024-01-11T07:34:32.893Z,-3.07
2024-01-11T07:36:14.325Z,-3.15
2024-01-11T07:37:55.761Z,-3.00
2024-01-11T07:39:37.133Z,-2.61
2024-01-11T07:41:18.518Z,-2.30
2024-01-11T07:42:59.859Z,-2.26
2024-01-11T07:44:41.254Z,-2.36
2024-01-11T07:46:32.437Z,-2.42
2024-01-11T07:48:17.973Z,-2.89
2024-01-11T07:49:59.499Z,-3.13
2024-01-11T07:51:40.907Z,-3.68
2024-01-11T07:53:22.311Z,-3.48
2024-01-11T07:55:03.764Z,-3.38
2024-01-11T07:56:45.175Z,-3.86
2024-01-11T07:58:26.555Z,-3.66
2024-01-11T08:00:08.003Z,-3.78
2024-01-11T08:01:49.450Z,-3.74
2024-01-11T08:03:30.822Z,-3.39
2024-01-11T08:05:12.392Z,-3.53
2024-01-11T08:06:53.888Z,-3.49
2024-01-11T08:08:35.349Z,-3.73
2024-01-11T08:10:16.743Z,-4.10
2024-01-11T08:11:58.191Z,-4.18
2024-01-11T08:13:39.583Z,-3.99
2024-01-11T08:15:20.947Z,-3.56
2024-01-11T08:17:02.358Z,-3.51
2024-01-11T08:18:43.733Z,-3.29
2024-01-11T08:20:25.127Z,-3.23
2024-01-11T08:22:06.537Z,-2.90
2024-01-11T08:23:47.937Z,-2.64
2024-01-11T08:25:29.337Z,-2.78
2024-01-11T08:27:10.738Z,-2.61
2024-01-11T08:28:52.089Z,-2.72
2024-01-11T08:30:33.466Z,-2.84
2024-01-11T08:32:24.105Z,-2.77
2024-01-11T08:34:12.793Z,-2.76
2024-01-11T08:35:54.311Z,-2.32
2024-01-11T08:37:35.671Z,-2.14
2024-01-11T08:39:17.032Z,-2.65
2024-01-11T08:40:58.401Z,-2.42
2024-01-11T08:42:39.752Z,-2.42
2024-01-11T08:44:21.117Z,-2.45
2024-01-11T08:46:02.543Z,-2.24
2024-01-11T08:47:44.099Z,-3.08
2024-01-11T08:49:25.561Z,-3.20
2024-01-11T08:51:07.054Z,-3.01
2024-01-11T08:52:49.471Z,-3.43
2024-01-11T08:54:30.815Z,-3.23
2024-01-11T08:56:12.186Z,-2.90
2024-01-11T08:57:53.597Z,-2.59
2024-01-11T08:59:35.653Z,-2.56
2024-01-11T09:01:17.253Z,-2.93
2024-01-11T09:02:59.222Z,-3.08
2024-01-11T09:04:40.777Z,-3.19
2024-01-11T09:06:22.482Z,-3.30
2024-01-11T09:08:03.939Z,-2.88
2024-01-11T09:09:51.276Z,-3.12
2024-01-11T09:11:38.228Z,-3.13
2024-01-11T09:13:19.626Z,-2.98
2024-01-11T09:15:00.991Z,-2.96
2024-01-11T09:16:42.373Z,-3.05
2024-01-11T09:18:23.819Z,-2.99
2024-01-11T09:20:05.284Z,-3.26
2024-01-11T09:21:46.728Z,-3.31
2024-01-11T09:23:28.153Z,-3.41
2024-01-11T09:25:09.642Z,-3.56
2024-01-11T09:26:51.144Z,-3.41
2024-01-11T09:28:32.504Z,-3.21
2024-01-11T09:30:14.453Z,-3.12
2024-01-11T09:31:56.279Z,-3.16
2024-01-11T09:33:37.776Z,-2.91
2024-01-11T09:35:19.379Z,-2.70
2024-01-11T09:37:00.903Z,-2.94
2024-01-11T09:38:42.397Z,-2.56
2024-01-11T09:40:23.778Z,-1.77
2024-01-11T09:42:05.160Z,-0.85
2024-01-11T09:43:47.451Z,0.54
2024-01-11T09:45:28.946Z,0.84
2024-01-11T09:47:11.662Z,1.02
2024-01-11T09:48:55.603Z,2.11
2024-01-11T09:50:37.185Z,3.37
2024-01-11T09:52:18.757Z,4.28
2024-01-11T09:54:00.178Z,4.10
2024-01-11T09:55:41.604Z,3.72
2024-01-11T09:57:23.030Z,3.93
2024-01-11T09:59:04.571Z,4.10
2024-01-11T10:00:46.198Z,4.24
2024-01-11T10:02:27.666Z,4.65
2024-01-11T10:04:09.511Z,5.00
2024-01-11T10:05:51.096Z,3.89
2024-01-11T10:07:32.672Z,3.34
2024-01-11T10:09:14.016Z,3.85
2024-01-11T10:10:55.357Z,3.71
2024-01-11T10:12:36.830Z,3.82
2024-01-11T10:14:18.970Z,4.42
2024-01-11T10:16:00.463Z,5.30
2024-01-11T10:17:42.080Z,5.74
2024-01-11T10:19:23.749Z,6.16
2024-01-11T10:21:05.344Z,6.68
2024-01-11T10:22:46.762Z,7.50
2024-01-11T10:24:28.108Z,7.00
2024-01-11T10:26:09.599Z,5.53
2024-01-11T10:27:50.996Z,4.64
2024-01-11T10:29:32.398Z,4.58
2024-01-11T10:31:13.810Z,5.13
2024-01-11T10:32:55.236Z,6.14
2024-01-11T10:34:36.633Z,6.64
2024-01-11T10:36:18.228Z,6.95
2024-01-11T10:37:59.754Z,7.52
2024-01-11T10:39:41.106Z,8.49
2024-01-11T10:41:22.520Z,9.73
2024-01-11T10:43:03.958Z,9.16
2024-01-11T10:44:45.398Z,8.35
2024-01-11T10:46:26.845Z,7.61
2024-01-11T10:48:08.446Z,5.82
2024-01-11T10:49:49.911Z,5.39
2024-01-11T10:51:31.874Z,5.30
2024-01-11T10:53:13.311Z,6.85
2024-01-11T10:54:54.717Z,8.37
2024-01-11T10:56:36.163Z,8.91
2024-01-11T10:58:18.147Z,10.11
2024-01-11T10:59:59.521Z,10.76
2024-01-11T11:01:40.911Z,11.47
2024-01-11T11:03:22.386Z,12.53
2024-01-11T11:05:03.889Z,13.17
2024-01-11T11:06:45.393Z,13.61
2024-01-11T11:08:26.982Z,14.10
2024-01-11T11:10:08.326Z,14.25
2024-01-11T11:11:49.757Z,14.88
2024-01-11T11:13:31.206Z,15.10
2024-01-11T11:15:12.657Z,14.70
2024-01-11T11:16:54.322Z,14.88
2024-01-11T11:18:35.810Z,14.37
2024-01-11T11:20:17.434Z,13.29
2024-01-11T11:21:58.858Z,11.58
2024-01-11T11:23:40.342Z,12.60
2024-01-11T11:25:21.786Z,13.04
2024-01-11T11:27:03.152Z,12.23
2024-01-11T11:28:44.541Z,10.49
2024-01-11T11:30:25.985Z,10.28
2024-01-11T11:32:07.350Z,7.45
2024-01-11T11:33:48.872Z,6.68
2024-01-11T11:35:30.409Z,7.17
2024-01-11T11:37:11.919Z,7.29
2024-01-11T11:38:53.341Z,6.76
2024-01-11T11:40:34.786Z,7.75
2024-01-11T11:42:16.163Z,8.93
2024-01-11T11:43:57.624Z,9.25
2024-01-11T11:45:41.644Z,9.41
2024-01-11T11:47:23.082Z,9.23
2024-01-11T11:49:04.858Z,10.75
2024-01-11T11:50:46.496Z,9.68
2024-01-11T11:52:27.908Z,10.32
2024-01-11T11:54:09.358Z,9.90
2024-01-11T11:55:50.699Z,10.35
2024-01-11T11:57:32.175Z,10.83
2024-01-11T11:59:13.608Z,8.92
2024-01-11T12:00:55.131Z,7.57
2024-01-11T12:02:36.578Z,7.31
2024-01-11T12:04:18.049Z,7.54
2024-01-11T12:05:59.668Z,8.81
2024-01-11T12:07:41.060Z,9.03
2024-01-11T12:09:22.454Z,8.37
2024-01-11T12:11:03.930Z,9.12
2024-01-11T12:12:45.574Z,9.08
2024-01-11T12:14:28.457Z,9.84
2024-01-11T12:16:10.034Z,8.82
2024-01-11T12:17:51.492Z,8.06
2024-01-11T12:19:33.149Z,8.91
2024-01-11T12:21:14.625Z,7.82
2024-01-11T12:22:55.999Z,7.61
2024-01-11T12:24:37.330Z,7.51
2024-01-11T12:26:18.953Z,7.91
2024-01-11T12:28:03.318Z,8.86
2024-01-11T12:29:52.767Z,7.38
2024-01-11T12:31:38.159Z,7.86
2024-01-11T12:33:19.681Z,7.83
2024-01-11T12:35:01.261Z,8.25
2024-01-11T12:36:42.834Z,8.22
2024-01-11T12:38:24.223Z,8.37
2024-01-11T12:40:05.663Z,8.13
2024-01-11T12:41:47.080Z,8.71
2024-01-11T12:43:28.545Z,8.45
2024-01-11T12:45:10.031Z,8.82
2024-01-11T12:46:51.460Z,8.62
2024-01-11T12:48:32.993Z,9.06
2024-01-11T12:50:14.652Z,8.53
2024-01-11T12:51:56.097Z,8.44
2024-01-11T12:53:37.515Z,7.56
2024-01-11T12:55:18.912Z,6.30
2024-01-11T12:57:00.511Z,5.12
2024-01-11T12:58:41.912Z,4.95
2024-01-11T13:00:23.389Z,4.22
2024-01-11T13:02:05.044Z,4.00
2024-01-11T13:03:47.144Z,3.64
2024-01-11T13:05:28.909Z,3.08
2024-01-11T13:07:10.415Z,2.67
2024-01-11T13:08:51.857Z,2.20
2024-01-11T13:10:33.314Z,1.85
2024-01-11T13:12:14.782Z,2.01
2024-01-11T13:13:56.139Z,1.97
2024-01-11T13:15:37.570Z,1.60
2024-01-11T13:17:19.031Z,1.10
2024-01-11T13:19:00.493Z,1.00
2024-01-11T13:20:41.971Z,1.10
2024-01-11T13:22:23.821Z,1.27
2024-01-11T13:24:05.170Z,1.65
2024-01-11T13:25:46.769Z,1.78
2024-01-11T13:27:28.785Z,2.30
2024-01-11T13:29:10.275Z,2.43
2024-01-11T13:30:51.693Z,2.27
2024-01-11T13:32:33.143Z,1.65
2024-01-11T13:34:14.522Z,1.37
2024-01-11T13:35:55.950Z,0.78
2024-01-11T13:37:37.405Z,1.18
2024-01-11T13:39:18.734Z,0.96
2024-01-11T13:41:00.087Z,0.29
2024-01-11T13:42:41.445Z,0.48
2024-01-11T13:44:25.106Z,0.51
2024-01-11T13:46:07.143Z,0.79
2024-01-11T13:47:48.634Z,0.92
2024-01-11T13:49:30.057Z,1.09
2024-01-11T13:51:11.603Z,1.17
2024-01-11T13:52:52.999Z,1.43
2024-01-11T13:54:34.426Z,1.28
2024-01-11T13:56:15.825Z,1.61
2024-01-11T13:57:57.245Z,1.79
2024-01-11T13:59:38.664Z,1.42
2024-01-11T14:01:20.670Z,1.71
2024-01-11T14:03:02.836Z,1.58
2024-01-11T14:04:45.148Z,1.78
2024-01-11T14:06:27.745Z,1.23
2024-01-11T14:08:09.252Z,1.02
2024-01-11T14:09:50.628Z,1.03
2024-01-11T14:11:32.024Z,1.03
2024-01-11T14:13:13.511Z,0.87
2024-01-11T14:14:54.963Z,0.04
2024-01-11T14:16:36.330Z,-0.65
2024-01-11T14:18:17.884Z,-0.54
2024-01-11T14:19:59.484Z,-0.20
2024-01-11T14:21:40.876Z,-0.19
2024-01-11T14:23:22.329Z,-0.08
2024-01-11T14:25:03.805Z,0.11
2024-01-11T14:26:45.268Z,0.12
2024-01-11T14:28:27.458Z,-0.09
2024-01-11T14:30:09.073Z,-0.68
2024-01-11T14:31:50.434Z,-0.32
2024-01-11T14:33:31.934Z,-0.19
2024-01-11T14:35:13.770Z,-0.72
2024-01-11T14:36:55.340Z,-0.71
2024-01-11T14:38:36.824Z,-0.60
2024-01-11T14:40:18.310Z,-0.48
2024-01-11T14:42:00.234Z,-0.80
2024-01-11T14:43:41.823Z,-0.71
2024-01-11T14:45:23.215Z,-0.60
2024-01-11T14:47:04.547Z,-0.43
2024-01-11T14:48:46.099Z,-0.32
2024-01-11T14:50:27.659Z,0.02
2024-01-11T14:52:09.008Z,0.37
2024-01-11T14:53:50.357Z,0.64
2024-01-11T14:55:31.778Z,0.79
2024-01-11T14:57:13.144Z,0.66
2024-01-11T14:58:55.190Z,0.66
2024-01-11T15:00:36.888Z,0.30
2024-01-11T15:02:18.312Z,-0.41
2024-01-11T15:03:59.705Z,-0.26
2024-01-11T15:05:41.237Z,0.07
2024-01-11T15:07:22.728Z,-0.33
2024-01-11T15:09:04.096Z,-0.07
2024-01-11T15:10:46.533Z,0.29
2024-01-11T15:12:28.029Z,0.60
2024-01-11T15:14:09.989Z,0.90
2024-01-11T15:15:51.586Z,0.88
2024-01-11T15:17:33.259Z,0.78
2024-01-11T15:19:14.887Z,0.76
2024-01-11T15:20:56.373Z,0.91
2024-01-11T15:22:37.758Z,0.58
2024-01-11T15:24:19.109Z,0.45
2024-01-11T15:26:00.485Z,0.07
2024-01-11T15:27:41.891Z,-0.52
2024-01-11T15:29:23.385Z,-0.89
2024-01-11T15:31:05.116Z,-0.39
2024-01-11T15:32:46.976Z,-0.04
2024-01-11T15:34:28.441Z,0.18
2024-01-11T15:36:10.142Z,-0.25
2024-01-11T15:37:51.485Z,-0.28
2024-01-11T15:39:34.971Z,-0.88
2024-01-11T15:41:16.631Z,-0.64
2024-01-11T15:42:57.996Z,-0.45
2024-01-11T15:44:39.380Z,-0.31
2024-01-11T15:46:20.905Z,-0.68
2024-01-11T15:48:02.377Z,-0.84
2024-01-11T15:49:43.929Z,-0.70
2024-01-11T15:51:25.424Z,-1.19
2024-01-11T15:53:06.829Z,-1.32
2024-01-11T15:54:48.244Z,-1.48
2024-01-11T15:56:29.676Z,-1.60
2024-01-11T15:58:11.076Z,-1.53
2024-01-11T15:59:52.500Z,-1.39
2024-01-11T16:01:34.018Z,-1.52
2024-01-11T16:03:15.636Z,-1.57
2024-01-11T16:04:57.039Z,-1.09
2024-01-11T16:06:38.480Z,-0.65
2024-01-11T16:08:19.900Z,-0.29
2024-01-11T16:10:01.289Z,-0.11
2024-01-11T16:11:42.969Z,-0.07
2024-01-11T16:13:24.559Z,0.02
2024-01-11T16:15:06.127Z,-0.72
2024-01-11T16:16:47.646Z,-0.92
2024-01-11T16:18:29.178Z,-0.66
2024-01-11T16:20:10.703Z,-0.18
2024-01-11T16:21:52.072Z,0.09
2024-01-11T16:23:33.473Z,0.35
2024-01-11T16:25:15.588Z,0.33
2024-01-11T16:26:57.231Z,0.50
2024-01-11T16:28:38.608Z,0.33
2024-01-11T16:30:19.975Z,-0.15
2024-01-11T16:32:01.405Z,-0.08
2024-01-11T16:33:42.771Z,-0.06
2024-01-11T16:35:24.446Z,0.10
2024-01-11T16:37:06.454Z,0.35
2024-01-11T16:38:47.914Z,0.71
2024-01-11T16:40:29.662Z,0.61
2024-01-11T16:42:11.332Z,0.28
2024-01-11T16:43:52.781Z,-1.10
2024-01-11T16:45:34.165Z,-1.45
2024-01-11T16:47:15.773Z,-1.67
2024-01-11T16:48:57.279Z,-2.11
2024-01-11T16:50:38.742Z,-2.07
2024-01-11T16:52:20.200Z,-1.58
2024-01-11T16:54:01.546Z,-1.29
2024-01-11T16:55:42.896Z,-1.22
2024-01-11T16:57:24.916Z,-1.48
2024-01-11T16:59:06.585Z,-1.84
2024-01-11T17:00:48.087Z,-1.51
2024-01-11T17:02:29.664Z,-1.25
2024-01-11T17:04:11.438Z,-1.25
2024-01-11T17:05:52.969Z,-1.13
2024-01-11T17:07:34.380Z,-1.16
2024-01-11T17:09:15.715Z,-1.15
2024-01-11T17:10:57.094Z,-1.27
2024-01-11T17:12:38.483Z,-1.37
2024-01-11T17:14:19.910Z,-1.32
2024-01-11T17:16:01.396Z,-1.00
2024-01-11T17:17:42.877Z,-0.55
2024-01-11T17:19:24.237Z,-0.52
2024-01-11T17:21:05.611Z,-0.31
2024-01-11T17:22:47.031Z,0.10
2024-01-11T17:24:29.662Z,0.12
2024-01-11T17:26:11.060Z,0.21
2024-01-11T17:27:52.433Z,-0.08
2024-01-11T17:29:33.854Z,-0.63
2024-01-11T17:31:15.249Z,-0.63
2024-01-11T17:32:56.756Z,-0.60
2024-01-11T17:34:38.380Z,-0.23
2024-01-11T17:36:19.878Z,-0.24
2024-01-11T17:38:01.222Z,-0.03
2024-01-11T17:39:42.560Z,0.03
2024-01-11T17:41:23.933Z,-0.06
2024-01-11T17:43:05.356Z,0.09
2024-01-11T17:44:46.789Z,0.19
2024-01-11T17:46:29.238Z,0.26
2024-01-11T17:48:11.084Z,0.07
2024-01-11T17:49:52.619Z,-0.10
2024-01-11T17:51:34.022Z,-0.45
2024-01-11T17:53:16.034Z,-0.61
2024-01-11T17:54:57.737Z,-0.47
2024-01-11T17:56:39.128Z,-0.22
2024-01-11T17:58:21.537Z,-0.07
2024-01-11T18:00:03.680Z,-0.04
2024-01-11T18:01:45.517Z,-0.25
2024-01-11T18:03:26.864Z,-0.22
2024-01-11T18:05:08.782Z,-0.11
2024-01-11T18:06:50.919Z,0.09
2024-01-11T18:08:32.578Z,0.13
2024-01-11T18:10:13.932Z,0.24
2024-01-11T18:11:55.381Z,0.05
2024-01-11T18:13:36.755Z,0.02
2024-01-11T18:15:18.102Z,-0.02
2024-01-11T18:16:59.457Z,-0.41
2024-01-11T18:18:40.867Z,-0.29
2024-01-11T18:20:22.410Z,-0.25
2024-01-11T18:22:05.181Z,-0.12
2024-01-11T18:23:46.697Z,0.07
2024-01-11T18:25:28.209Z,0.11
2024-01-11T18:27:09.665Z,0.11
2024-01-11T18:28:51.566Z,0.04
2024-01-11T18:30:33.246Z,0.14
2024-01-11T18:32:14.811Z,0.09
2024-01-11T18:33:56.275Z,0.22
2024-01-11T18:35:37.812Z,-0.18
2024-01-11T18:37:19.220Z,-0.11
2024-01-11T18:39:00.662Z,0.08
2024-01-11T18:40:42.061Z,0.20
2024-01-11T18:42:23.403Z,0.05
2024-01-11T18:44:05.639Z,0.26
2024-01-11T18:45:48.817Z,0.58
2024-01-11T18:47:31.761Z,-0.22
2024-01-11T18:49:13.302Z,-1.30
2024-01-11T18:50:54.768Z,-1.07
2024-01-11T18:52:36.129Z,-1.17
2024-01-11T18:54:17.486Z,-2.41
2024-01-11T18:55:58.922Z,-2.81
2024-01-11T18:57:40.820Z,-2.47
2024-01-11T18:59:22.495Z,-2.01
2024-01-11T19:01:04.125Z,-1.66
2024-01-11T19:02:45.912Z,-1.43
2024-01-11T19:04:27.392Z,-1.71
2024-01-11T19:06:09.175Z,-1.65
2024-01-11T19:07:50.802Z,-1.30
2024-01-11T19:09:32.258Z,-1.02
2024-01-11T19:11:15.274Z,-0.79
2024-01-11T19:12:56.985Z,-0.82
2024-01-11T19:14:38.378Z,-0.66
2024-01-11T19:16:19.828Z,-0.67
2024-01-11T19:18:01.369Z,-0.70
2024-01-11T19:19:43.023Z,-0.56
2024-01-11T19:21:25.085Z,-0.81
2024-01-11T19:23:06.727Z,-1.01
2024-01-11T19:24:48.221Z,-0.91
2024-01-11T19:26:29.608Z,-0.79
2024-01-11T19:28:10.994Z,-1.09
2024-01-11T19:29:52.703Z,-1.94
2024-01-11T19:31:34.145Z,-1.92
2024-01-11T19:33:15.775Z,-1.51
2024-01-11T19:34:57.470Z,-1.49
2024-01-11T19:36:39.496Z,-1.44
2024-01-11T19:38:21.072Z,-1.20
2024-01-11T19:40:02.470Z,-0.97
2024-01-11T19:41:43.850Z,-1.01
2024-01-11T19:43:25.524Z,-0.86
2024-01-11T19:45:07.058Z,-1.37
2024-01-11T19:46:48.424Z,-1.62
2024-01-11T19:48:29.930Z,-1.31
2024-01-11T19:50:11.676Z,-1.37
2024-01-11T19:51:53.165Z,-0.85
2024-01-11T19:53:34.709Z,-0.75
2024-01-11T19:55:16.239Z,-0.65
2024-01-11T19:56:57.626Z,-0.45
2024-01-11T19:58:39.021Z,-0.34
2024-01-11T20:00:20.407Z,-0.24
2024-01-11T20:02:02.447Z,-0.31
2024-01-11T20:03:43.972Z,-0.11
2024-01-11T20:05:25.367Z,-0.07
2024-01-11T20:07:06.768Z,0.10
2024-01-11T20:08:48.221Z,-0.16
2024-01-11T20:10:29.566Z,-0.25
2024-01-11T20:12:10.946Z,-0.24
2024-01-11T20:13:52.314Z,-0.35
2024-01-11T20:15:33.679Z,-0.33
2024-01-11T20:17:15.125Z,-2.04
2024-01-11T20:18:56.573Z,-2.27
2024-01-11T20:20:38.040Z,-2.07
2024-01-11T20:22:19.414Z,-1.63
2024-01-11T20:24:00.947Z,-2.05
2024-01-11T20:25:42.318Z,-2.44
2024-01-11T20:27:23.666Z,-3.22
2024-01-11T20:29:05.043Z,-3.26
2024-01-11T20:30:46.554Z,-3.07
2024-01-11T20:32:28.748Z,-2.57
2024-01-11T20:34:10.708Z,-2.13
2024-01-11T20:35:52.187Z,-2.00
2024-01-11T20:37:33.654Z,-2.17
2024-01-11T20:39:15.378Z,-1.84
2024-01-11T20:40:57.063Z,-1.72
2024-01-11T20:42:38.522Z,-1.82
2024-01-11T20:44:19.921Z,-2.37
2024-01-11T20:46:01.575Z,-2.05
2024-01-11T20:47:43.140Z,-2.36
2024-01-11T20:49:24.565Z,-2.77
2024-01-11T20:51:05.997Z,-3.22
2024-01-11T20:52:47.374Z,-3.12
2024-01-11T20:54:28.960Z,-2.86
2024-01-11T20:56:10.683Z,-2.50
2024-01-11T20:57:52.172Z,-2.00
2024-01-11T20:59:33.579Z,-1.72
2024-01-11T21:01:15.056Z,-1.42
2024-01-11T21:02:56.517Z,-1.19
2024-01-11T21:04:37.883Z,-1.14
2024-01-11T21:06:20.017Z,-1.03
2024-01-11T21:08:03.811Z,-0.82
2024-01-11T21:09:46.325Z,-0.67
2024-01-11T21:11:27.823Z,-0.59
2024-01-11T21:13:09.810Z,-0.56
2024-01-11T21:14:51.958Z,-0.34
2024-01-11T21:16:33.607Z,-0.60
2024-01-11T21:18:15.363Z,-0.54
2024-01-11T21:19:57.095Z,-1.95
2024-01-11T21:21:38.468Z,-2.44
2024-01-11T21:23:19.838Z,-2.37
2024-01-11T21:25:01.923Z,-2.67
2024-01-11T21:26:43.563Z,-2.80
2024-01-11T21:28:25.161Z,-2.97
2024-01-11T21:30:06.810Z,-2.83
2024-01-11T21:31:48.215Z,-2.63
2024-01-11T21:33:29.737Z,-2.25
2024-01-11T21:35:11.587Z,-1.90
2024-01-11T21:36:53.174Z,-2.41
2024-01-11T21:38:34.778Z,-2.38
2024-01-11T21:40:16.475Z,-2.93
2024-01-11T21:41:57.919Z,-2.74
2024-01-11T21:43:39.279Z,-2.19
2024-01-11T21:45:20.666Z,-1.64
2024-01-11T21:47:02.003Z,-1.74
2024-01-11T21:48:43.503Z,-2.34
2024-01-11T21:50:25.124Z,-2.67
2024-01-11T21:52:06.485Z,-2.43
2024-01-11T21:53:47.872Z,-1.88
2024-01-11T21:55:29.290Z,-1.69
2024-01-11T21:57:10.702Z,-1.29
2024-01-11T21:58:52.043Z,-1.09